Terminal Aerodrome Forecast
Issued by NWS

Home | Current Version | Previous Version | Text Only | Print | Product List | Glossary On
Versions: 1 2 3 4 5 6 7 8 9 10 11 12 13 14 15 16 17 18 19
000
FTUS43 KEAX 141100
TAFSTJ
TAF
KSTJ 141125Z 1412/1512 33007KT P6SM SCT250
     FM141300 33008KT P6SM VCTS BKN080CB
     FM141400 34010KT 6SM -SHRA SCT040 BKN080
      TEMPO 1414/1417 3SM -TSRA BKN025CB
     FM141800 34015G23KT P6SM SCT070
     FM150000 35006KT P6SM SKC=

USA.gov is the U.S. government's official web portal to all federal, state and local government web resources and services.